Altoona Blair County Airport Altoona US
ICAO: KAOO
IATA: AOO
Category: Medium
Scheduled Services: Yes

Elevation: 1503 ft
TransAlt. 18000 ft.

Airport Communications:
ASOS:127.125
CLEVELAND CNTR:121.2
CTAF:123.6
RDO:122.1
RDO:122.2
UNICOM:123

KAOO Zoom In..

If you have problems with the map follow the link
https://www.worldairports.se/pages/airport.php?
ICAO=KAOO

Runways:

(A) RW 03 length 5465 ft width 100 ft
---- / hdg 26

(B) RW 12 length 3668 ft width 75 ft
---- / hdg 118

(C) RW 21 length 5465 ft width 100 ft
ILS 111.10 / hdg 206

(D) RW 30 length 3668 ft width 75 ft
---- / hdg 298

Location; KAOO
Day. 14 / Time. 10.53 Zulu
* Altimeter: 30.35
* Temperature: -02° c. -28.4°f.
* Wind from: 310° Speed 07 kn with Gusts up to 16 kn.
Dewpoint: -09° c.
Visibility: 10 Statute Miles.
Clouds: Broken 3300 ft.

KAOO 141053Z AUTO 31007G16KT 10SM BKN033 M02/M09 A3035 RMK AO2 SLP295 T10171089


Wind From 310°
Speed 07 kn.

 
 
jpsmedia.com for Web Design worldairports.se 2018   terms of use